ADDS METAR Data INFO
IDs: Format: Raw Decoded Include TAF

Data at: 2137 UTC 15 Dec 2017

KONX 152120Z AUTO 27013G21KT 10SM CLR 11/03 A2987 RMK AO2 T01120030
KONX 152100Z AUTO 27011KT 10SM CLR 12/04 A2985 RMK AO2 T01220040
KONX 152040Z AUTO 25012G16KT 10SM CLR 13/04 A2984 RMK AO2 T01320041
KONX 152020Z AUTO 25010G19KT 10SM CLR 14/04 A2984 RMK AO2 T01380041
KONX 152000Z AUTO 24010G16KT 10SM CLR 14/04 A2983 RMK AO2 T01410043
KONX 151940Z AUTO 22008KT 170V240 10SM CLR 14/07 A2983 RMK AO2 T01410071
KONX 151920Z AUTO 23011G14KT 10SM CLR 14/08 A2983 RMK AO2 T01410079
KONX 151900Z AUTO 20003KT 10SM CLR 14/09 A2983 RMK AO2 T01380085
KONX 151840Z AUTO 16006KT 10SM CLR 13/08 A2984 RMK AO2 T01340084
KONX 151820Z AUTO 15005KT 10SM CLR 13/08 A2985 RMK AO2 T01310083
KONX 151800Z AUTO 14004KT 10SM SCT022 BKN029 13/08 A2987 RMK AO2 T01270082
KONX 151740Z AUTO 14004KT 10SM BKN022 OVC030 12/08 A2989 RMK AO2 T01200080
KONX 151720Z AUTO 11003KT 10SM BKN018 OVC025 12/08 A2990 RMK AO2 T01180077
KONX 151700Z AUTO 11005KT 10SM SCT018 BKN031 BKN039 12/08 A2992 RMK AO2 T01180076
KONX 151640Z AUTO 11005KT 10SM SCT020 SCT035 SCT046 11/07 A2993 RMK AO2 T01120073
KONX 151620Z AUTO 11006KT 10SM SCT017 SCT038 SCT047 11/07 A2995 RMK AO2 T01090069
KONX 151600Z AUTO 10007KT 070V140 10SM SCT039 SCT047 11/07 A2996 RMK AO2 T01080067
KONX 151540Z AUTO 09008KT 10SM CLR 10/06 A2997 RMK AO2 T01030063
KONX 151520Z AUTO 09005KT 10SM SCT047 10/06 A2998 RMK AO2 T00980060
KONX 151500Z AUTO 09005KT 10SM CLR 09/06 A2998 RMK AO2 T00930057
KONX 151440Z AUTO 08004KT 10SM CLR 09/05 A2999 RMK AO2 T00860053
KONX 151420Z AUTO 08005KT 10SM CLR 08/05 A2999 RMK AO2 T00810049
KONX 151400Z AUTO 08004KT 10SM SCT120 08/05 A3000 RMK AO2 T00770045
KONX 151340Z AUTO 07005KT 10SM BKN120 07/04 A3000 RMK AO2 T00740041
KONX 151320Z AUTO 00000KT 10SM SCT120 07/04 A3001 RMK AO2 T00710038
KONX 151300Z AUTO 07004KT 10SM CLR 07/04 A3000 RMK AO2 T00660037
KONX 151240Z AUTO 05004KT 10SM CLR 06/03 A3002 RMK AO2 T00610034
KONX 151220Z AUTO 00000KT 10SM CLR 06/03 A3003 RMK AO2 T00600030
KONX 151200Z AUTO 04004KT 10SM CLR 06/03 A3004 RMK AO2 T00570029
KONX 151140Z AUTO 04004KT 10SM SCT027 05/03 A3003 RMK AO2 T00520026
KONX 151120Z AUTO 03004KT 10SM BKN027 BKN032 06/03 A3004 RMK AO2 T00560026
KONX 151100Z AUTO 00000KT 10SM BKN027 06/03 A3003 RMK AO2 T00570025
KONX 151040Z AUTO 03004KT 10SM CLR 05/02 A3003 RMK AO2 T00540021
KONX 151020Z AUTO 04004KT 10SM CLR 05/02 A3004 RMK AO2 T00500019
KONX 151000Z AUTO 04005KT 10SM CLR 05/02 A3004 RMK AO2 T00490016
KONX 150940Z AUTO 04004KT 10SM CLR 05/02 A3005 RMK AO2 T00460015
KONX 150920Z AUTO 04003KT 10SM CLR 05/02 A3005 RMK AO2 T00460015
KONX 150900Z AUTO 04004KT 10SM CLR 05/01 A3005 RMK AO2 T00450011
KONX 150840Z AUTO 04006KT 10SM CLR 05/01 A3005 RMK AO2 T00460010
KONX 150820Z AUTO 04004KT 10SM CLR 05/01 A3006 RMK AO2 T00470010
KONX 150800Z AUTO 04006KT 10SM CLR 05/01 A3006 RMK AO2 T00470010
KONX 150740Z AUTO 05005KT 10SM CLR 05/01 A3005 RMK AO2 T00480010
KONX 150720Z AUTO 03006KT 10SM CLR 05/01 A3006 RMK AO2 T00480011
KONX 150700Z AUTO 04006KT 10SM CLR 05/01 A3006 RMK AO2 T00510009
KONX 150640Z AUTO 04006KT 10SM CLR 05/01 A3005 RMK AO2 T00520007
KONX 150620Z AUTO 04007KT 10SM CLR 05/01 A3005 RMK AO2 T00510008
KONX 150600Z AUTO 05006KT 10SM CLR 05/01 A3005 RMK AO2 T00510010
KONX 150540Z AUTO 04006KT 10SM CLR 05/01 A3006 RMK AO2 T00500010
KONX 150520Z AUTO 03007KT 10SM CLR 05/01 A3007 RMK AO2 T00470007
KONX 150500Z AUTO 03006KT 10SM CLR 05/01 A3007 RMK AO2 T00460005
KONX 150440Z AUTO 02006KT 10SM CLR 04/00 A3007 RMK AO2 T00440003
KONX 150420Z AUTO 02005KT 10SM CLR 04/00 A3008 RMK AO2 T00440000
KONX 150400Z AUTO 01004KT 10SM CLR 05/00 A3008 RMK AO2 T00460000
KONX 150340Z AUTO 01005KT 10SM CLR 05/00 A3007 RMK AO2 T00500001
KONX 150320Z AUTO 02006KT 10SM CLR 05/00 A3007 RMK AO2 T00540003
KONX 150300Z AUTO 02008KT 10SM CLR 06/00 A3006 RMK AO2 T00550003
KONX 150240Z AUTO 01006KT 10SM CLR 05/01 A3007 RMK AO2 T00540005
KONX 150220Z AUTO 03005KT 10SM CLR 06/01 A3005 RMK AO2 T00550006
KONX 150200Z AUTO 02005KT 10SM CLR 06/01 A3005 RMK AO2 T00550005
KONX 150140Z AUTO 03007KT 10SM CLR 06/00 A3005 RMK AO2 T00550002
KONX 150120Z AUTO 01006KT 10SM CLR 06/00 A3004 RMK AO2 T00550002
KONX 150100Z AUTO 02006KT 10SM CLR 06/00 A3003 RMK AO2 T00570004
KONX 150040Z AUTO 02008KT 10SM CLR 06/01 A3002 RMK AO2 T00600007
KONX 150020Z AUTO 02008KT 10SM CLR 06/01 A3002 RMK AO2 T00630007
KONX 150000Z AUTO 02007KT 10SM CLR 06/01 A3001 RMK AO2 T00630006
KONX 142340Z AUTO 02007KT 10SM CLR 07/00 A2999 RMK AO2 T00650003
KONX 142320Z AUTO 03006KT 10SM CLR 07/00 A2998 RMK AO2 T00650000
KONX 142300Z AUTO 03006KT 10SM CLR 06/00 A2997 RMK AO2 T00640000
KONX 142240Z AUTO 02005KT 10SM CLR 07/00 A2996 RMK AO2 T00660001
KONX 142220Z AUTO 02007KT 10SM CLR 07/00 A2994 RMK AO2 T00710002
KONX 142200Z AUTO 03007KT 10SM CLR 08/00 A2992 RMK AO2 T00770002
KONX 142140Z AUTO 03009KT 10SM CLR 08/00 A2992 RMK AO2 T00830004
KONX 142120Z AUTO 03007KT 10SM CLR 09/00 A2990 RMK AO2 T00870001
KONX 142100Z AUTO 03008G16KT 10SM CLR 09/00 A2989 RMK AO2 T00910001
KONX 142040Z AUTO 02009G16KT 10SM CLR 10/00 A2988 RMK AO2 T00990001
KONX 142020Z AUTO 02014G19KT 10SM CLR 12/M02 A2987 RMK AO2 T01231019
KONX 142000Z AUTO 32004KT 10SM CLR 13/M02 A2985 RMK AO2 T01301025
KONX 141940Z AUTO 27008KT 10SM CLR 13/M03 A2985 RMK AO2 T01301026
KONX 141920Z AUTO 27006KT 10SM CLR 13/M03 A2984 RMK AO2 T01311026
KONX 141900Z AUTO 28007KT 10SM CLR 13/M03 A2984 RMK AO2 T01311026
KONX 141840Z AUTO 29007KT 10SM CLR 13/M02 A2982 RMK AO2 T01291025
KONX 141820Z AUTO 26009G16KT 10SM CLR 13/M03 A2982 RMK AO2 T01291027
KONX 141800Z AUTO 28009G17KT 260V320 10SM CLR 13/M03 A2981 RMK AO2 T01271026
KONX 141740Z AUTO 28010G17KT 10SM CLR 13/M03 A2981 RMK AO2 T01251026
KONX 141720Z AUTO 26010G19KT 10SM CLR 12/M03 A2981 RMK AO2 T01211026
KONX 141700Z AUTO 26006KT 10SM CLR 12/M02 A2982 RMK AO2 T01161025
KONX 141640Z AUTO 25013G17KT 10SM CLR 11/M02 A2982 RMK AO2 T01081025
KONX 141620Z AUTO 25009G15KT 230V290 10SM CLR 10/M03 A2982 RMK AO2 T01001026
KONX 141600Z AUTO 26011G17KT 10SM CLR 09/M03 A2982 RMK AO2 T00911029
KONX 141540Z AUTO 25011G15KT 10SM CLR 08/M03 A2983 RMK AO2 T00821031
KONX 141520Z AUTO 25011G15KT 10SM CLR 08/M03 A2981 RMK AO2 T00751032
KONX 141500Z AUTO 24009KT 10SM CLR 07/M03 A2981 RMK AO2 T00671034
KONX 141440Z AUTO 24012G17KT 10SM CLR 06/M04 A2979 RMK AO2 T00611036
KONX 141420Z AUTO 24010G19KT 10SM CLR 06/M04 A2978 RMK AO2 T00551038
KONX 141400Z AUTO 24011G17KT 10SM CLR 05/M04 A2977 RMK AO2 T00481037
KONX 141340Z AUTO 24011KT 10SM CLR 04/M04 A2976 RMK AO2 T00421038
KONX 141320Z AUTO 25010G16KT 10SM CLR 04/M04 A2976 RMK AO2 T00391039
KONX 141300Z AUTO 23010G15KT 10SM CLR 04/M04 A2975 RMK AO2 T00371039
KONX 141240Z AUTO 24009KT 10SM CLR 04/M04 A2974 RMK AO2 T00371040
KONX 141220Z AUTO 23011G16KT 10SM CLR 04/M04 A2973 RMK AO2 T00391039
KONX 141200Z AUTO 23011KT 10SM CLR 04/M04 A2972 RMK AO2 T00401038
KONX 141140Z AUTO 23010G16KT 10SM CLR 04/M04 A2971 RMK AO2 T00411037
KONX 141120Z AUTO 23009KT 10SM CLR 04/M04 A2970 RMK AO2 T00421037
KONX 141100Z AUTO 22011KT 10SM CLR 04/M04 A2969 RMK AO2 T00411038
KONX 141040Z AUTO 22009G14KT 10SM CLR 04/M04 A2968 RMK AO2 T00411038
KONX 141020Z AUTO 23010KT 10SM CLR 04/M04 A2968 RMK AO2 T00421039
KONX 141000Z AUTO 22011KT 10SM CLR 04/M04 A2967 RMK AO2 T00431039
KONX 140940Z AUTO 22012G16KT 10SM CLR 05/M04 A2967 RMK AO2 T00451040